Weather at Sinjah Airport

Public forecast

Using degrees Celsius for public forecast. Weather courtesy of forecast.io.

Closest aviation weather report (METAR) to Sinjah Airport

Closest report is Djibouti-Ambouli Airport, 569.7 nm (1,055.0 km) E.

2024/06/17 09:00 (retrieved 1 hour ago)

HDAM 170900Z 07011KT 9999 FEW023 39/26 Q1004

Closest aviation forecast (TAF) to Sinjah Airport

Closest forecast is Djibouti-Ambouli Airport, 569.7 nm (1,055.0 km) E.

2024/06/17 06:11 (retrieved 4 hours ago)

TAF HDAM 170500Z 1706/1806 06013KT 9999 FEW133 BECMG 1718/1800 17004KT FEW133 BECMG 1800/1806 VRB04KT 9000 HZ SCT133